createdAt,value
2022-10-13T00:02:53.287Z,14.3
2022-10-13T00:08:24.907Z,14.05
2022-10-13T00:13:56.675Z,14.22
2022-10-13T00:19:28.393Z,14.17
2022-10-13T00:25:00.188Z,13.94
2022-10-13T00:30:31.861Z,13.96
2022-10-13T00:36:03.568Z,14.01
2022-10-13T00:41:35.316Z,14.15
2022-10-13T00:47:06.985Z,14.24
2022-10-13T00:52:45.129Z,14.19
2022-10-13T00:58:16.865Z,14.16
2022-10-13T01:03:48.702Z,14.1
2022-10-13T01:09:25.422Z,14.06
2022-10-13T01:14:52.085Z,14.06
2022-10-13T01:20:23.742Z,14.04
2022-10-13T01:25:55.457Z,14.03
2022-10-13T01:31:27.210Z,14.06
2022-10-13T01:36:58.953Z,14.06
2022-10-13T01:42:30.601Z,14.05
2022-10-13T01:48:02.364Z,14.05
2022-10-13T01:53:40.465Z,14.01
2022-10-13T01:59:12.234Z,14.03
2022-10-13T02:04:43.942Z,14.04
2022-10-13T02:10:15.678Z,14.05
2022-10-13T02:15:47.357Z,13.98
2022-10-13T02:21:19.085Z,13.92
2022-10-13T02:26:51.351Z,13.87
2022-10-13T02:32:23.126Z,13.89
2022-10-13T02:37:54.842Z,13.93
2022-10-13T02:43:26.594Z,14.02
2022-10-13T02:48:58.343Z,14.02
2022-10-13T02:54:34.485Z,13.95
2022-10-13T03:00:06.241Z,13.87
2022-10-13T03:05:37.986Z,13.89
2022-10-13T03:11:09.685Z,13.83
2022-10-13T03:16:41.553Z,13.95
2022-10-13T03:22:13.130Z,13.95
2022-10-13T03:27:44.794Z,14.01
2022-10-13T03:33:16.562Z,14.07
2022-10-13T03:38:48.238Z,14.03
2022-10-13T03:44:20.018Z,14.06
2022-10-13T03:49:51.761Z,14.08
2022-10-13T03:55:27.839Z,14.25
2022-10-13T04:00:59.538Z,14.3
2022-10-13T04:06:31.301Z,14.34
2022-10-13T04:12:03.030Z,14.42
2022-10-13T04:17:34.826Z,14.46
2022-10-13T04:23:06.513Z,14.47
2022-10-13T04:28:38.185Z,14.46
2022-10-13T04:34:10.112Z,14.36
2022-10-13T04:39:41.649Z,14.33
2022-10-13T04:45:13.407Z,14.29
2022-10-13T04:50:45.141Z,14.27
2022-10-13T04:56:21.214Z,14.24
2022-10-13T05:01:53.014Z,14.22
2022-10-13T05:07:24.710Z,14.17
2022-10-13T05:12:56.458Z,14.09
2022-10-13T05:18:28.158Z,14.07
2022-10-13T05:23:59.930Z,14.08
2022-10-13T05:29:31.657Z,14.13
2022-10-13T05:35:03.448Z,14.2
2022-10-13T05:40:35.090Z,14.16
2022-10-13T05:46:06.760Z,14.16
2022-10-13T05:51:38.469Z,14.08
2022-10-13T05:57:16.744Z,14.08
2022-10-13T06:02:48.326Z,14.1
2022-10-13T06:08:20.082Z,14.31
2022-10-13T06:13:51.805Z,14.27
2022-10-13T06:19:23.522Z,14.03
2022-10-13T06:24:55.214Z,14.26
2022-10-13T06:30:26.940Z,14.44
2022-10-13T06:35:58.706Z,14.37
2022-10-13T06:41:30.394Z,14.42
2022-10-13T06:47:02.199Z,14.55
2022-10-13T06:52:33.900Z,14.62
2022-10-13T06:58:11.966Z,14.71
2022-10-13T07:03:43.726Z,14.4
2022-10-13T07:09:15.441Z,14.74
2022-10-13T07:14:47.125Z,14.15
2022-10-13T07:20:18.911Z,14.38
2022-10-13T07:25:50.623Z,14.51
2022-10-13T07:31:22.362Z,14.21
2022-10-13T07:36:54.078Z,14.12
2022-10-13T07:42:25.810Z,14.26
2022-10-13T07:48:00.511Z,14.33
2022-10-13T07:53:32.266Z,14.61
2022-10-13T07:59:08.302Z,14.76
2022-10-13T08:04:40.038Z,14.81
2022-10-13T08:10:11.770Z,15.0
2022-10-13T08:15:43.505Z,15.46
2022-10-13T08:21:39.529Z,14.95
2022-10-13T08:26:46.986Z,15.35
2022-10-13T08:32:18.948Z,15.36
2022-10-13T08:37:50.403Z,15.71
2022-10-13T08:43:22.111Z,15.71
2022-10-13T08:48:53.834Z,16.36
2022-10-13T08:54:25.667Z,16.25
2022-10-13T09:00:01.775Z,16.22
2022-10-13T09:05:33.408Z,16.49
2022-10-13T09:11:05.093Z,16.54
2022-10-13T09:16:36.854Z,16.72
2022-10-13T09:22:08.598Z,16.85
2022-10-13T09:27:40.306Z,16.84
2022-10-13T09:33:12.021Z,16.81
2022-10-13T09:38:43.753Z,16.78
2022-10-13T09:44:15.509Z,16.99
2022-10-13T09:49:47.182Z,17.16
2022-10-13T09:55:18.917Z,17.01
2022-10-13T10:00:55.040Z,17.1
2022-10-13T10:06:27.671Z,17.11
2022-10-13T10:11:58.533Z,17.12
2022-10-13T10:17:30.188Z,17.18
2022-10-13T10:23:01.946Z,17.27
2022-10-13T10:28:33.723Z,17.48
2022-10-13T10:34:05.384Z,17.68
2022-10-13T10:39:37.102Z,17.58
2022-10-13T10:45:08.854Z,17.71
2022-10-13T10:50:40.517Z,17.68
2022-10-13T10:56:12.285Z,17.62
2022-10-13T11:01:48.388Z,17.6
2022-10-13T11:07:20.170Z,17.6
2022-10-13T11:12:51.947Z,17.68
2022-10-13T11:18:23.592Z,17.92
2022-10-13T11:23:58.519Z,17.64
2022-10-13T11:29:27.238Z,17.7
2022-10-13T11:34:58.756Z,17.93
2022-10-13T11:40:30.547Z,17.82
2022-10-13T11:46:02.256Z,18.24
2022-10-13T11:51:33.987Z,17.78
2022-10-13T11:57:05.679Z,17.95
2022-10-13T12:02:41.801Z,17.95
2022-10-13T12:08:13.503Z,17.96
2022-10-13T12:13:45.196Z,18.18
2022-10-13T12:19:16.907Z,18.36
2022-10-13T12:24:48.649Z,18.17
2022-10-13T12:30:20.362Z,18.33
2022-10-13T12:35:52.092Z,18.96
2022-10-13T12:41:23.843Z,18.94
2022-10-13T12:46:55.560Z,18.88
2022-10-13T12:52:27.282Z,18.88
2022-10-13T12:57:58.985Z,19.29
2022-10-13T13:03:35.092Z,19.45
2022-10-13T13:09:06.825Z,19.43
2022-10-13T13:14:38.521Z,19.56
2022-10-13T13:20:10.273Z,19.7
2022-10-13T13:25:42.005Z,19.14
2022-10-13T13:31:13.741Z,19.38
2022-10-13T13:36:45.476Z,19.53
2022-10-13T13:42:17.190Z,19.2
2022-10-13T13:47:48.900Z,19.15
2022-10-13T13:53:20.600Z,19.1
2022-10-13T13:58:52.312Z,19.17
2022-10-13T14:04:30.428Z,19.22
2022-10-13T14:10:02.487Z,19.16
2022-10-13T14:15:33.905Z,19.12
2022-10-13T14:21:05.631Z,19.04
2022-10-13T14:26:37.373Z,18.95
2022-10-13T14:32:09.305Z,18.69
2022-10-13T14:37:40.877Z,18.61
2022-10-13T14:43:12.606Z,18.18
2022-10-13T14:48:44.302Z,18.36
2022-10-13T14:54:16.049Z,18.3
2022-10-13T14:59:47.775Z,18.34
2022-10-13T15:05:25.873Z,18.32
2022-10-13T15:10:57.594Z,18.38
2022-10-13T15:16:30.172Z,18.33
2022-10-13T15:22:01.873Z,18.33
2022-10-13T15:27:35.883Z,18.29
2022-10-13T15:33:05.398Z,18.27
2022-10-13T15:38:37.083Z,18.14
2022-10-13T15:44:08.878Z,18.15
2022-10-13T15:49:40.537Z,18.05
2022-10-13T15:55:12.690Z,17.95
2022-10-13T16:00:44.032Z,17.89
2022-10-13T16:06:20.185Z,17.73
2022-10-13T16:11:51.838Z,17.78
2022-10-13T16:17:23.574Z,17.74
2022-10-13T16:22:55.367Z,17.51
2022-10-13T16:28:27.079Z,17.61
2022-10-13T16:33:58.762Z,17.64
2022-10-13T16:39:30.469Z,17.52
2022-10-13T16:45:02.221Z,17.51
2022-10-13T16:50:33.969Z,17.52
2022-10-13T16:56:05.681Z,17.52
2022-10-13T17:01:37.457Z,17.49
2022-10-13T17:07:13.510Z,17.43
2022-10-13T17:12:45.262Z,17.4
2022-10-13T17:18:16.980Z,17.37
2022-10-13T17:23:48.991Z,17.34
2022-10-13T17:29:20.419Z,17.27
2022-10-13T17:34:52.169Z,17.22
2022-10-13T17:40:23.845Z,17.23
2022-10-13T17:46:03.637Z,17.19
2022-10-13T17:51:27.301Z,17.15
2022-10-13T17:56:59.178Z,17.13
2022-10-13T18:02:30.797Z,17.13
2022-10-13T18:08:08.843Z,17.08
2022-10-13T18:13:40.683Z,17.04
2022-10-13T18:19:12.298Z,17.01
2022-10-13T18:24:44.012Z,17.0
2022-10-13T18:30:18.703Z,17.01
2022-10-13T18:35:47.505Z,16.97
2022-10-13T18:41:19.206Z,16.94
2022-10-13T18:46:50.960Z,16.99
2022-10-13T18:52:22.615Z,16.97
2022-10-13T18:57:54.370Z,16.99
2022-10-13T19:03:26.045Z,16.97
2022-10-13T19:09:02.192Z,16.96
2022-10-13T19:14:33.935Z,16.93
2022-10-13T19:20:05.678Z,16.89
2022-10-13T19:25:37.348Z,16.8
2022-10-13T19:31:09.069Z,16.8
2022-10-13T19:36:40.841Z,16.77
2022-10-13T19:42:12.545Z,16.75
2022-10-13T19:47:44.242Z,16.77
2022-10-13T19:53:16.112Z,16.74
2022-10-13T19:58:47.732Z,16.76
2022-10-13T20:04:19.443Z,16.69
2022-10-13T20:09:55.532Z,16.64
2022-10-13T20:15:27.287Z,16.59
2022-10-13T20:20:58.991Z,16.55
2022-10-13T20:26:30.657Z,16.51
2022-10-13T20:32:02.415Z,16.4
2022-10-13T20:37:34.320Z,16.33
2022-10-13T20:43:05.855Z,16.28
2022-10-13T20:48:58.092Z,16.26
2022-10-13T20:54:09.316Z,16.29
2022-10-13T20:59:41.015Z,16.23
2022-10-13T21:05:12.745Z,16.16
2022-10-13T21:10:50.915Z,16.13
2022-10-13T21:16:22.642Z,16.09
2022-10-13T21:21:54.536Z,16.02
2022-10-13T21:27:26.003Z,16.03
2022-10-13T21:32:57.792Z,15.96
2022-10-13T21:38:29.488Z,15.99
2022-10-13T21:44:01.248Z,15.99
2022-10-13T21:49:32.901Z,15.93
2022-10-13T21:55:04.673Z,15.93
2022-10-13T22:00:36.442Z,15.94
2022-10-13T22:06:08.173Z,15.93
2022-10-13T22:11:44.244Z,15.95
2022-10-13T22:17:15.983Z,15.93
2022-10-13T22:22:47.698Z,15.88
2022-10-13T22:28:19.398Z,15.94
2022-10-13T22:33:51.141Z,15.96
2022-10-13T22:39:22.853Z,15.93
2022-10-13T22:44:54.713Z,15.93
2022-10-13T22:50:26.239Z,15.94
2022-10-13T22:55:58.043Z,15.94
2022-10-13T23:01:29.874Z,15.93
2022-10-13T23:07:01.505Z,15.9
2022-10-13T23:12:39.580Z,15.89
2022-10-13T23:18:11.429Z,15.85
2022-10-13T23:23:42.988Z,15.83
2022-10-13T23:29:14.656Z,15.83
2022-10-13T23:34:46.516Z,15.7
2022-10-13T23:40:18.248Z,15.68
2022-10-13T23:45:49.902Z,15.67
2022-10-13T23:51:21.645Z,15.72
2022-10-13T23:56:53.331Z,15.73
